Time;durP1;ratioP1;P1;durP2;ratioP2;P2;SDS_P1;SDS_P2;PMS_P1;PMS_P2;Temp;Humidity;BMP_temperature;BMP_pressure;BME280_temperature;BME280_humidity;BME280_pressure;Samples;Min_cycle;Max_cycle;Signal;HPM_P1;HPM_P2
2021/05/20 00:02:14;;;;;;;6.47;5.40;;;;;;;11.08;74.82;100723.44;5003688;28;20038;-79
2021/05/20 00:04:40;;;;;;;6.78;5.22;;;;;;;11.10;74.69;100727.81;5020566;28;20044;-79
2021/05/20 00:07:06;;;;;;;6.80;4.95;;;;;;;10.98;74.85;100730.53;5006021;28;20050;-79
2021/05/20 00:09:31;;;;;;;10.00;4.80;;;;;;;10.91;74.73;100732.31;5001601;28;20095;-79
2021/05/20 00:11:56;;;;;;;6.07;4.43;;;;;;;10.91;75.09;100732.31;5005356;28;20033;-79
2021/05/20 00:14:22;;;;;;;7.35;4.85;;;;;;;10.82;75.42;100729.75;5011223;28;20037;-79
2021/05/20 00:16:48;;;;;;;6.93;4.78;;;;;;;10.77;75.13;100731.50;5013507;28;20121;-79
2021/05/20 00:19:13;;;;;;;7.35;4.53;;;;;;;10.73;74.89;100735.03;5003958;28;20121;-79
2021/05/20 00:21:39;;;;;;;5.38;4.35;;;;;;;10.68;75.40;100734.16;5004636;28;20061;-79
2021/05/20 00:24:05;;;;;;;6.22;4.70;;;;;;;10.59;75.48;100736.84;5005903;28;20049;-79
2021/05/20 00:26:32;;;;;;;5.85;4.60;;;;;;;10.42;76.20;100745.66;5003473;28;20078;-78
2021/05/20 00:28:57;;;;;;;6.63;4.97;;;;;;;10.35;76.60;100745.69;5004624;28;20071;-79
2021/05/20 00:31:23;;;;;;;6.13;4.85;;;;;;;10.21;76.95;100753.59;5011817;28;20517;-79
2021/05/20 00:33:48;;;;;;;7.03;5.13;;;;;;;10.10;77.52;100746.56;5006532;28;20041;-79
2021/05/20 00:36:13;;;;;;;8.13;5.35;;;;;;;10.02;77.26;100742.19;5003640;28;20038;-79
2021/05/20 00:38:39;;;;;;;6.45;4.47;;;;;;;9.97;78.04;100749.22;5003581;28;20038;-79
2021/05/20 00:41:04;;;;;;;6.25;4.65;;;;;;;9.87;77.82;100749.19;5005878;28;20045;-79
2021/05/20 00:43:30;;;;;;;7.80;4.97;;;;;;;9.81;78.42;100748.34;5002959;28;20037;-79
2021/05/20 00:45:55;;;;;;;7.15;5.80;;;;;;;9.75;79.28;100753.63;5004437;28;20400;-79
2021/05/20 00:48:21;;;;;;;7.97;5.30;;;;;;;9.68;78.93;100759.75;5005435;28;20428;-79
2021/05/20 00:50:47;;;;;;;5.85;4.90;;;;;;;9.62;79.26;100753.59;5003236;28;20396;-79
2021/05/20 00:53:13;;;;;;;7.53;5.45;;;;;;;9.58;79.25;100751.81;5003393;28;20034;-79
2021/05/20 00:55:39;;;;;;;6.63;5.20;;;;;;;9.55;79.63;100756.22;5010805;28;20030;-79
2021/05/20 00:58:06;;;;;;;5.78;4.95;;;;;;;9.49;79.15;100756.22;5006760;28;20087;-79
2021/05/20 01:00:31;;;;;;;7.22;5.32;;;;;;;9.46;79.18;100757.09;5024400;28;20041;-79
2021/05/20 01:02:57;;;;;;;10.02;5.60;;;;;;;9.44;79.76;100758.84;5011215;28;20037;-79
2021/05/20 01:05:22;;;;;;;6.82;5.28;;;;;;;9.37;79.77;100757.06;5009817;28;20042;-79
2021/05/20 01:07:48;;;;;;;8.07;5.63;;;;;;;9.34;79.93;100754.41;5012188;28;20030;-79
2021/05/20 01:10:13;;;;;;;7.13;5.93;;;;;;;9.26;79.78;100758.78;5032233;28;20129;-79
2021/05/20 01:12:39;;;;;;;9.55;6.40;;;;;;;9.17;80.18;100760.53;5012495;28;20053;-79
2021/05/20 01:15:17;;;;;;;7.47;5.88;;;;;;;9.12;80.60;100759.63;5009267;28;20374;-78
2021/05/20 01:17:42;;;;;;;8.50;5.93;;;;;;;9.12;80.10;100764.88;5009470;28;20121;-79
2021/05/20 01:20:08;;;;;;;8.77;5.65;;;;;;;9.08;80.60;100768.38;5012048;28;20072;-79
2021/05/20 01:22:33;;;;;;;7.72;6.40;;;;;;;9.04;80.44;100761.34;5009598;28;20049;-78
2021/05/20 01:24:58;;;;;;;6.97;5.50;;;;;;;9.04;80.61;100768.34;5009430;28;20134;-79
2021/05/20 01:27:24;;;;;;;9.50;6.40;;;;;;;8.98;81.30;100767.44;5011415;28;20091;-79
2021/05/20 01:29:49;;;;;;;7.95;6.47;;;;;;;8.92;80.93;100769.19;5009330;28;20035;-78
2021/05/20 01:32:14;;;;;;;9.10;5.93;;;;;;;8.89;81.59;100766.56;5009448;28;20041;-78
2021/05/20 01:34:40;;;;;;;9.75;5.55;;;;;;;8.90;81.63;100773.56;5010458;28;20484;-78
2021/05/20 01:37:07;;;;;;;7.57;6.50;;;;;;;8.87;81.57;100776.19;5008047;28;20408;-78
2021/05/20 01:39:33;;;;;;;6.75;5.13;;;;;;;8.87;81.61;100776.19;5010292;28;20048;-78
2021/05/20 01:41:58;;;;;;;7.35;5.82;;;;;;;8.89;81.41;100779.72;5010317;28;20041;-78
2021/05/20 01:44:24;;;;;;;7.30;5.50;;;;;;;8.94;81.14;100778.84;5008076;28;20091;-78
2021/05/20 01:46:50;;;;;;;7.47;6.35;;;;;;;9.00;80.82;100783.25;5009971;28;20041;-78
2021/05/20 01:49:15;;;;;;;8.07;5.43;;;;;;;9.07;80.75;100781.56;5009857;28;20064;-78
2021/05/20 01:51:41;;;;;;;7.22;5.30;;;;;;;9.11;81.18;100789.44;5007787;28;20121;-78
2021/05/20 01:54:07;;;;;;;7.72;5.43;;;;;;;9.18;nan;100793.88;5010447;28;20025;-78
2021/05/20 01:56:39;;;;;;;10.15;5.95;;;;;;;9.30;80.33;100786.88;5009540;28;20037;-78
2021/05/20 01:59:05;;;;;;;7.93;6.00;;;;;;;9.37;80.00;100796.56;5007736;28;20034;-78
2021/05/20 02:01:32;;;;;;;6.90;5.82;;;;;;;9.38;80.10;100796.59;5009753;28;20033;-78
2021/05/20 02:03:58;;;;;;;8.38;5.57;;;;;;;9.48;79.34;100796.59;5011027;28;20038;-78
2021/05/20 02:06:23;;;;;;;6.57;5.35;;;;;;;9.51;79.39;100797.50;5010007;28;20061;-79
2021/05/20 02:08:48;;;;;;;6.78;5.70;;;;;;;9.51;79.68;100797.50;5011148;28;20029;-79
2021/05/20 02:11:14;;;;;;;7.65;5.90;;;;;;;9.53;79.81;100798.34;5011509;28;20041;-79
2021/05/20 02:13:39;;;;;;;9.13;5.20;;;;;;;9.55;79.98;100793.97;5009203;28;20068;-79
2021/05/20 02:16:05;;;;;;;11.00;6.57;;;;;;;9.58;80.12;100798.38;5005918;28;20034;-79
2021/05/20 02:18:31;;;;;;;8.40;6.13;;;;;;;9.55;80.06;100793.09;5007544;28;20038;-79
2021/05/20 02:20:56;;;;;;;7.05;5.85;;;;;;;9.60;79.85;100800.13;5015365;28;20041;-79
2021/05/20 02:23:21;;;;;;;8.27;5.90;;;;;;;9.60;79.87;100804.53;5020356;28;20053;-79
2021/05/20 02:25:47;;;;;;;7.57;5.53;;;;;;;9.70;80.04;100814.22;5007688;28;20037;-79
2021/05/20 02:28:12;;;;;;;7.65;5.53;;;;;;;9.70;79.83;100808.94;5007098;28;20026;-79
2021/05/20 02:30:38;;;;;;;8.23;5.82;;;;;;;9.72;79.79;100807.22;5005260;28;20026;-79
2021/05/20 02:33:03;;;;;;;7.63;5.32;;;;;;;9.79;79.49;100803.69;5007377;28;20566;-78
2021/05/20 02:35:29;;;;;;;9.35;6.45;;;;;;;9.79;79.57;100813.34;5005830;28;20556;-79
2021/05/20 02:37:54;;;;;;;6.93;5.53;;;;;;;9.83;79.39;100809.84;5005637;28;20030;-79
2021/05/20 02:40:21;;;;;;;8.13;5.90;;;;;;;9.86;79.46;100810.72;5007335;28;20509;-79
2021/05/20 02:42:46;;;;;;;7.53;5.88;;;;;;;9.94;79.42;100816.00;5005977;28;20080;-79
2021/05/20 02:45:15;;;;;;;9.68;5.88;;;;;;;9.94;79.11;100813.38;5006094;28;20034;-79
2021/05/20 02:47:43;;;;;;;6.78;5.60;;;;;;;10.02;78.43;100813.38;5007740;28;20072;-79
2021/05/20 02:50:09;;;;;;;8.68;6.15;;;;;;;9.92;79.49;100814.25;5006315;28;20030;-79
2021/05/20 02:52:34;;;;;;;9.98;6.15;;;;;;;9.85;80.18;100816.88;5005370;28;20045;-79
2021/05/20 02:55:03;;;;;;;10.40;6.50;;;;;;;9.79;80.15;100821.25;5007407;28;20044;-78
2021/05/20 02:57:29;;;;;;;8.88;7.03;;;;;;;9.64;82.11;100815.09;5005671;28;20061;-79
2021/05/20 02:59:55;;;;;;;7.80;6.63;;;;;;;9.58;82.61;100822.97;5005705;28;20541;-78
2021/05/20 03:02:21;;;;;;;11.82;7.10;;;;;;;9.51;83.18;100829.13;5007183;28;20033;-79
2021/05/20 03:04:46;;;;;;;10.40;8.10;;;;;;;9.48;83.77;100823.81;5004757;28;20039;-79
2021/05/20 03:07:11;;;;;;;12.07;8.10;;;;;;;9.45;83.68;100823.81;5005039;28;20050;-79
2021/05/20 03:09:38;;;;;;;13.70;9.13;;;;;;;9.37;84.91;100825.53;5006256;28;20034;-79
2021/05/20 03:12:04;;;;;;;12.18;9.60;;;;;;;9.32;85.90;100824.66;5003638;28;20053;-78
2021/05/20 03:14:29;;;;;;;10.30;8.00;;;;;;;9.30;85.89;100829.00;5004827;28;20420;-78
2021/05/20 03:16:55;;;;;;;12.13;9.65;;;;;;;9.18;85.83;100825.47;5004985;28;20475;-78
2021/05/20 03:19:21;;;;;;;11.43;8.32;;;;;;;9.15;85.92;100830.72;5002127;28;20034;-78
2021/05/20 03:21:46;;;;;;;10.73;7.70;;;;;;;9.12;85.65;100824.59;5004536;28;20404;-79
2021/05/20 03:24:12;;;;;;;12.38;8.73;;;;;;;9.08;86.46;100833.31;5008299;28;20042;-78
2021/05/20 03:26:37;;;;;;;10.68;7.70;;;;;;;9.10;85.92;100828.94;5005880;28;20041;-78
2021/05/20 03:29:03;;;;;;;9.45;7.75;;;;;;;9.11;86.10;100839.47;5003109;28;20034;-78
2021/05/20 03:31:29;;;;;;;10.05;8.70;;;;;;;9.11;85.89;100844.75;5003354;28;20033;-78
2021/05/20 03:33:54;;;;;;;11.70;7.80;;;;;;;9.15;85.76;100836.00;5008074;28;20546;-78
2021/05/20 03:36:20;;;;;;;9.85;7.38;;;;;;;9.21;85.90;100840.41;5004565;28;20030;-78
2021/05/20 03:38:45;;;;;;;10.88;8.45;;;;;;;9.28;85.65;100841.31;5003092;28;20041;-78
2021/05/20 03:41:11;;;;;;;8.55;7.57;;;;;;;9.30;85.32;100836.91;5026897;28;20528;-79
2021/05/20 03:43:36;;;;;;;8.05;7.18;;;;;;;9.33;85.00;100834.31;5005323;28;20080;-78
2021/05/20 03:46:03;;;;;;;9.48;6.75;;;;;;;9.39;85.08;100835.22;5002998;28;20089;-78
2021/05/20 03:48:29;;;;;;;8.98;6.80;;;;;;;9.38;84.67;100841.38;5005015;28;20022;-79
2021/05/20 03:50:58;;;;;;;7.60;6.30;;;;;;;9.41;84.96;100846.63;5002483;28;20092;-79
2021/05/20 03:53:29;;;;;;;7.72;6.40;;;;;;;9.45;85.15;100855.41;5004125;28;20113;-78
2021/05/20 03:55:54;;;;;;;8.82;6.97;;;;;;;9.44;84.68;100861.56;5005300;28;20531;-79
2021/05/20 03:58:19;;;;;;;8.20;7.30;;;;;;;9.48;85.02;100863.31;5002969;28;20042;-79
2021/05/20 04:00:45;;;;;;;7.95;6.60;;;;;;;9.54;84.39;100857.22;5004380;28;20030;-78
2021/05/20 04:03:10;;;;;;;8.18;6.68;;;;;;;9.60;84.76;100868.66;5004469;28;20112;-79
2021/05/20 04:05:35;;;;;;;8.82;6.90;;;;;;;9.63;84.51;100860.75;5002157;28;20038;-79
2021/05/20 04:08:01;;;;;;;8.27;6.60;;;;;;;9.75;84.87;100869.59;5005015;28;20026;-79
2021/05/20 04:10:26;;;;;;;8.00;6.85;;;;;;;9.80;84.24;100865.22;5025874;28;20544;-78
2021/05/20 04:12:51;;;;;;;8.30;6.63;;;;;;;9.87;83.72;100870.47;5005702;28;20524;-79
2021/05/20 04:15:17;;;;;;;11.82;7.20;;;;;;;9.91;83.80;100871.38;5003019;28;20037;-79
2021/05/20 04:17:43;;;;;;;8.15;6.50;;;;;;;9.91;84.01;100883.69;5004480;28;20034;-79
2021/05/20 04:20:09;;;;;;;10.98;7.93;;;;;;;9.91;83.68;100879.28;5005228;28;20045;-80
2021/05/20 04:22:34;;;;;;;9.68;7.20;;;;;;;9.93;83.94;100889.81;5002097;28;20038;-79
2021/05/20 04:25:00;;;;;;;7.75;6.43;;;;;;;9.94;83.94;100881.06;5005714;28;20037;-79
2021/05/20 04:27:25;;;;;;;9.85;7.43;;;;;;;9.93;83.62;100890.72;5007800;28;20033;-79
2021/05/20 04:29:50;;;;;;;9.43;6.85;;;;;;;9.94;83.74;100891.59;5013730;28;20133;-80
2021/05/20 04:32:15;;;;;;;7.63;6.55;;;;;;;9.99;83.43;100887.22;5013130;28;20116;-79
2021/05/20 04:34:44;;;;;;;8.65;6.60;;;;;;;10.09;82.94;100886.34;5012058;28;20037;-79
2021/05/20 04:37:09;;;;;;;7.85;6.85;;;;;;;10.21;82.50;100896.03;5017590;28;20038;-80
2021/05/20 04:39:34;;;;;;;8.85;6.97;;;;;;;10.27;82.67;100888.09;5005857;28;20559;-79
2021/05/20 04:42:00;;;;;;;7.75;6.55;;;;;;;10.44;83.00;100894.31;5004079;28;20038;-80
2021/05/20 04:44:26;;;;;;;7.63;6.43;;;;;;;10.51;83.00;100890.81;5004369;28;20399;-80
2021/05/20 04:46:51;;;;;;;8.02;5.65;;;;;;;10.62;82.98;100897.84;5011836;28;20610;-79
2021/05/20 04:49:16;;;;;;;8.82;6.18;;;;;;;10.70;81.96;100901.34;5013569;28;20497;-79
2021/05/20 04:51:42;;;;;;;8.25;6.32;;;;;;;10.71;81.81;100900.47;5012970;28;20030;-80
2021/05/20 04:54:08;;;;;;;6.82;5.70;;;;;;;10.78;82.11;100899.59;5003156;28;20034;-79
2021/05/20 04:56:34;;;;;;;8.70;6.45;;;;;;;10.84;80.99;100898.69;5012280;28;20048;-79
2021/05/20 04:59:00;;;;;;;9.32;6.72;;;;;;;10.85;80.78;100898.69;5003838;28;20109;-79
2021/05/20 05:01:25;;;;;;;7.18;6.20;;;;;;;10.86;81.42;100899.56;5004924;28;20471;-79
2021/05/20 05:03:50;;;;;;;9.20;6.30;;;;;;;10.86;80.66;100903.09;5002669;28;20084;-79
2021/05/20 05:06:16;;;;;;;6.82;5.93;;;;;;;10.91;80.55;100906.59;5004691;28;20072;-80
2021/05/20 05:08:41;;;;;;;8.52;5.93;;;;;;;10.88;81.30;100908.38;5009987;28;20045;-79
2021/05/20 05:11:07;;;;;;;7.78;6.30;;;;;;;10.97;80.54;100906.59;5009256;28;20037;-79
2021/05/20 05:13:32;;;;;;;7.57;5.88;;;;;;;11.00;79.65;100905.69;5012286;28;20381;-80
2021/05/20 05:15:59;;;;;;;6.82;5.35;;;;;;;10.89;80.51;100905.72;5009790;28;20049;-79
2021/05/20 05:18:24;;;;;;;8.27;6.22;;;;;;;10.99;80.45;100909.25;5001137;28;20142;-79
2021/05/20 05:20:50;;;;;;;7.68;5.93;;;;;;;11.08;80.90;100908.31;5004999;28;20030;-79
2021/05/20 05:23:15;;;;;;;7.25;6.18;;;;;;;11.17;79.91;100908.31;5002653;28;20030;-80
2021/05/20 05:25:40;;;;;;;7.10;5.50;;;;;;;11.24;79.10;100910.06;5003433;28;20035;-80
2021/05/20 05:28:06;;;;;;;6.82;5.47;;;;;;;11.15;79.86;100913.59;5011682;28;20030;-79
2021/05/20 05:30:31;;;;;;;6.70;5.85;;;;;;;11.21;79.36;100909.19;5004660;28;20416;-79
2021/05/20 05:32:57;;;;;;;7.60;6.07;;;;;;;11.25;80.04;100910.94;5002957;28;20077;-80
2021/05/20 05:35:22;;;;;;;6.50;4.88;;;;;;;11.41;79.76;100913.53;5002747;28;20043;-80
2021/05/20 05:37:47;;;;;;;7.57;5.55;;;;;;;11.35;78.79;100910.91;5004952;28;20049;-79
2021/05/20 05:40:13;;;;;;;7.28;5.97;;;;;;;11.40;79.14;100922.34;5003133;28;20045;-79
2021/05/20 05:42:38;;;;;;;6.50;5.78;;;;;;;11.44;78.92;100915.28;5002936;28;20046;-79
2021/05/20 05:45:05;;;;;;;6.20;5.22;;;;;;;11.36;77.94;100912.66;5005043;28;20125;-79
2021/05/20 05:47:30;;;;;;;10.82;5.32;;;;;;;11.36;78.25;100923.22;5002614;28;20038;-80
2021/05/20 05:49:56;;;;;;;8.32;5.65;;;;;;;11.37;78.77;100917.06;5005493;28;20041;-80
2021/05/20 05:52:22;;;;;;;7.25;5.88;;;;;;;11.39;79.05;100919.69;5008613;28;20056;-78
2021/05/20 05:54:49;;;;;;;7.47;6.25;;;;;;;11.58;78.14;100915.22;5006257;28;20046;-80
2021/05/20 05:57:14;;;;;;;10.10;6.25;;;;;;;11.55;77.35;100916.13;5007316;28;20068;-79
2021/05/20 05:59:40;;;;;;;8.95;5.90;;;;;;;11.56;78.23;100914.38;5008306;28;20073;-80
2021/05/20 06:02:05;;;;;;;6.75;5.78;;;;;;;11.66;77.68;100916.09;5008568;28;20083;-80
2021/05/20 06:04:31;;;;;;;7.78;6.05;;;;;;;11.80;77.62;100922.16;5027648;28;20106;-79
2021/05/20 06:06:57;;;;;;;8.68;6.15;;;;;;;11.92;76.96;100923.03;5009932;28;20038;-79
2021/05/20 06:09:22;;;;;;;7.32;5.97;;;;;;;11.83;76.56;100930.09;5004617;28;20035;-79
2021/05/20 06:11:48;;;;;;;7.53;5.68;;;;;;;11.79;77.55;100923.06;5007875;28;20045;-79
2021/05/20 06:14:13;;;;;;;7.32;5.63;;;;;;;11.77;76.66;100930.13;5007213;28;20046;-79
2021/05/20 06:16:42;;;;;;;6.95;5.65;;;;;;;11.60;76.77;100924.03;5005662;28;20049;-80
2021/05/20 06:19:09;;;;;;;7.72;6.20;;;;;;;11.68;76.95;100926.63;5008261;28;20030;-79
2021/05/20 06:21:35;;;;;;;6.78;5.18;;;;;;;11.61;76.61;100936.38;5006866;28;20134;-79
2021/05/20 06:24:01;;;;;;;7.45;5.72;;;;;;;11.65;76.09;100939.88;5005890;28;20125;-79
2021/05/20 06:26:27;;;;;;;7.90;6.05;;;;;;;11.75;76.43;100946.88;5008106;28;20038;-79
2021/05/20 06:28:53;;;;;;;9.60;7.68;;;;;;;11.82;76.96;100938.91;5006686;28;20077;-79
2021/05/20 06:31:18;;;;;;;7.85;6.53;;;;;;;12.11;75.43;100943.22;5005695;28;20031;-80
2021/05/20 06:33:44;;;;;;;8.05;6.30;;;;;;;12.15;74.68;100939.63;5007671;28;20045;-79
2021/05/20 06:36:10;;;;;;;7.97;6.05;;;;;;;12.13;74.68;100941.44;5012214;28;20049;-80
2021/05/20 06:38:36;;;;;;;9.30;7.38;;;;;;;12.24;75.19;100939.59;5004777;28;20034;-80
2021/05/20 06:41:05;;;;;;;8.88;6.88;;;;;;;12.49;74.33;100942.06;5006524;28;20183;-77
2021/05/20 06:43:30;;;;;;;9.02;7.25;;;;;;;12.66;73.37;100940.16;5007743;28;20085;-77
2021/05/20 06:45:55;;;;;;;9.50;7.43;;;;;;;12.68;71.74;100948.09;5006139;28;20041;-77
2021/05/20 06:48:21;;;;;;;9.10;7.03;;;;;;;12.55;72.57;100949.06;5018337;28;20041;-80
2021/05/20 06:50:46;;;;;;;7.60;6.65;;;;;;;12.64;72.28;100951.66;5006956;28;20132;-79
2021/05/20 06:53:12;;;;;;;7.65;6.57;;;;;;;12.66;72.93;100950.75;5026987;28;20496;-78
2021/05/20 06:55:37;;;;;;;9.85;7.53;;;;;;;12.72;72.21;100955.13;5006311;28;20586;-78
2021/05/20 07:00:33;;;;;;;10.50;7.43;;;;;;;12.59;71.63;100962.28;5003410;28;20088;-77
2021/05/20 07:02:58;;;;;;;9.98;7.47;;;;;;;12.50;72.03;100957.06;5004903;28;20038;-78
2021/05/20 07:05:24;;;;;;;10.27;8.45;;;;;;;12.47;72.69;100960.63;5002535;28;20030;-78
2021/05/20 07:07:50;;;;;;;10.27;8.10;;;;;;;12.61;73.01;100955.22;5004012;28;20476;-78
2021/05/20 07:10:16;;;;;;;9.30;7.95;;;;;;;12.75;71.49;100951.56;5004395;28;20042;-78
2021/05/20 07:12:41;;;;;;;9.68;8.07;;;;;;;12.83;71.59;100955.03;5001926;28;20034;-78
2021/05/20 07:15:07;;;;;;;10.45;9.00;;;;;;;12.83;71.56;100961.19;5019156;28;20037;-78
2021/05/20 07:17:33;;;;;;;8.85;7.80;;;;;;;12.91;70.93;100958.50;5003853;28;20033;-77
2021/05/20 07:19:58;;;;;;;9.95;8.45;;;;;;;13.15;70.69;100955.63;5001987;28;20038;-78
2021/05/20 07:22:23;;;;;;;10.55;8.40;;;;;;;13.45;70.05;100966.81;5002930;28;20033;-78
2021/05/20 07:24:49;;;;;;;11.10;9.02;;;;;;;13.42;68.61;100958.03;5004463;28;20041;-77
2021/05/20 07:27:14;;;;;;;11.02;9.55;;;;;;;13.40;69.88;100962.47;5009646;28;20025;-77
2021/05/20 07:29:40;;;;;;;11.02;9.20;;;;;;;13.41;68.78;100965.09;5023553;28;20038;-78
2021/05/20 07:32:07;;;;;;;10.63;9.43;;;;;;;13.30;69.34;100959.91;5023591;28;20070;-77
2021/05/20 07:34:35;;;;;;;11.68;10.23;;;;;;;13.35;70.30;100962.50;5006157;28;20042;-77
2021/05/20 07:37:01;;;;;;;12.18;10.18;;;;;;;13.28;69.24;100958.16;5009100;28;20038;-78
2021/05/20 07:39:26;;;;;;;12.15;10.52;;;;;;;13.38;68.96;100965.13;5011244;28;20040;-78
2021/05/20 07:41:51;;;;;;;11.90;10.65;;;;;;;13.51;68.48;100960.56;5002260;28;20065;-77
2021/05/20 07:44:17;;;;;;;13.43;10.77;;;;;;;13.45;68.99;100958.00;5004550;28;20038;-78
2021/05/20 07:46:42;;;;;;;11.60;9.88;;;;;;;13.72;68.73;100962.97;5001899;28;20500;-77
2021/05/20 07:49:07;;;;;;;10.73;9.65;;;;;;;13.85;68.00;100955.72;5008043;28;20041;-78
2021/05/20 07:51:33;;;;;;;10.20;9.15;;;;;;;13.80;67.00;100957.56;5008169;28;20573;-78
2021/05/20 07:53:58;;;;;;;10.52;9.40;;;;;;;13.73;68.05;100959.44;5001521;28;20497;-78
2021/05/20 07:56:24;;;;;;;12.27;10.00;;;;;;;13.94;67.45;100960.06;5004381;28;20034;-78
2021/05/20 07:58:53;;;;;;;11.07;9.93;;;;;;;14.09;66.37;100962.47;5009101;28;20038;-78
2021/05/20 08:01:20;;;;;;;12.02;9.48;;;;;;;14.09;64.94;100966.91;5008851;28;20400;-78
2021/05/20 08:03:49;;;;;;;11.60;10.40;;;;;;;14.10;65.25;100966.91;5004098;28;20065;-78
2021/05/20 08:06:25;;;;;;;10.60;9.60;;;;;;;14.03;65.41;100962.59;5004041;28;20037;-77
2021/05/20 08:08:58;;;;;;;10.23;9.20;;;;;;;14.01;64.84;100967.91;5003933;28;20066;-78
2021/05/20 08:11:23;;;;;;;10.95;9.10;;;;;;;14.13;64.35;100971.31;5000436;28;20066;-78
2021/05/20 08:13:49;;;;;;;10.45;9.35;;;;;;;14.08;64.70;100967.84;5001701;28;20072;-78
2021/05/20 08:16:15;;;;;;;14.85;12.23;;;;;;;14.14;66.27;100962.44;5003627;28;20057;-78
2021/05/20 08:18:41;;;;;;;11.88;10.70;;;;;;;14.32;65.33;100956.84;5001236;28;20042;-78
2021/05/20 08:21:07;;;;;;;11.00;9.70;;;;;;;14.55;64.44;100964.50;5003207;28;20048;-78
2021/05/20 08:23:34;;;;;;;11.10;9.23;;;;;;;14.58;64.00;100976.88;5008157;28;20037;-77
2021/05/20 08:26:00;;;;;;;9.93;8.98;;;;;;;14.53;64.79;100966.31;5004290;28;20076;-77
2021/05/20 08:28:26;;;;;;;11.20;10.02;;;;;;;14.53;64.19;100963.66;5010160;28;20064;-77
2021/05/20 08:30:51;;;;;;;11.10;9.95;;;;;;;14.69;64.43;100964.28;5007898;28;20050;-78
2021/05/20 08:33:17;;;;;;;11.40;9.65;;;;;;;14.61;64.86;100968.84;5001072;28;20045;-77
2021/05/20 08:35:42;;;;;;;9.77;8.55;;;;;;;14.79;63.92;100960.56;5027138;28;20077;-78
2021/05/20 08:38:08;;;;;;;16.67;11.85;;;;;;;15.26;62.32;100958.84;5001441;28;20128;-78
2021/05/20 08:40:33;;;;;;;14.00;9.45;;;;;;;15.37;61.32;100958.66;5004140;28;20101;-78
2021/05/20 08:42:59;;;;;;;10.10;8.88;;;;;;;15.33;62.52;100955.19;5000634;28;20066;-78
2021/05/20 08:45:28;;;;;;;9.23;7.90;;;;;;;15.62;61.67;100967.03;5018592;28;20117;-78
2021/05/20 08:47:55;;;;;;;9.50;7.78;;;;;;;15.54;60.66;100953.91;5003203;28;20091;-78
2021/05/20 08:50:23;;;;;;;8.93;7.30;;;;;;;15.76;60.31;100954.34;5001379;28;20113;-78
2021/05/20 08:52:49;;;;;;;7.60;6.60;;;;;;;15.56;60.44;100956.50;5008969;28;20037;-78
2021/05/20 08:55:17;;;;;;;8.48;6.90;;;;;;;15.64;59.28;100954.59;5009657;28;20437;-77
2021/05/20 08:57:43;;;;;;;8.40;7.50;;;;;;;15.50;60.06;100964.63;5019445;28;20065;-78
2021/05/20 09:00:12;;;;;;;8.18;6.60;;;;;;;15.38;59.58;100951.53;5004230;28;20468;-77
2021/05/20 09:02:38;;;;;;;8.57;6.88;;;;;;;15.39;58.60;100977.25;5017405;28;20046;-78
2021/05/20 09:05:08;;;;;;;8.55;7.30;;;;;;;15.19;58.80;100964.31;5027847;28;20069;-77
2021/05/20 09:07:36;;;;;;;8.95;6.50;;;;;;;15.25;60.16;100953.59;5001294;28;20488;-78
2021/05/20 09:10:18;;;;;;;7.03;5.05;;;;;;;15.96;58.09;100961.06;5007512;28;20065;-78
2021/05/20 09:12:44;;;;;;;7.80;5.63;;;;;;;16.20;56.58;100949.84;5004387;28;20042;-78
2021/05/20 09:15:14;;;;;;;6.45;5.55;;;;;;;16.30;57.71;100947.88;5008132;28;20454;-78
2021/05/20 09:17:40;;;;;;;6.57;5.25;;;;;;;16.49;55.26;100950.97;5004506;28;20038;-78
2021/05/20 09:20:05;;;;;;;8.35;6.18;;;;;;;16.74;54.52;100943.25;5003914;28;20088;-78
2021/05/20 09:22:31;;;;;;;13.85;11.60;;;;;;;17.02;54.24;100943.44;5001664;28;20072;-78
2021/05/20 09:24:58;;;;;;;5.35;4.82;;;;;;;17.02;52.90;100940.78;5006795;28;20037;-78
2021/05/20 09:27:39;;;;;;;5.97;4.80;;;;;;;16.85;52.93;100938.56;5014617;28;20034;-78
2021/05/20 09:30:08;;;;;;;6.90;5.25;;;;;;;16.41;55.14;100947.63;5010064;28;20037;-78
2021/05/20 09:32:35;;;;;;;7.22;5.88;;;;;;;15.68;59.85;100955.41;5014706;28;20047;-78
2021/05/20 09:35:01;;;;;;;8.13;5.53;;;;;;;14.16;62.88;100972.13;5009548;28;20022;-77
2021/05/20 09:37:26;;;;;;;14.73;10.02;;;;;;;12.90;73.40;101007.09;5013090;28;20038;-76
2021/05/20 09:40:01;;;;;;;17.38;14.40;;;;;;;11.78;81.93;100986.53;5013493;28;20041;-76
2021/05/20 09:42:30;;;;;;;14.57;11.15;;;;;;;11.33;82.69;100989.31;5010298;28;20039;-76
2021/05/20 09:45:05;;;;;;;9.48;7.65;;;;;;;11.00;81.29;100994.63;5006200;28;20037;-76
2021/05/20 09:47:30;;;;;;;11.15;9.18;;;;;;;10.61;81.67;101004.28;5005821;28;20034;-74
2021/05/20 09:50:00;;;;;;;10.10;9.02;;;;;;;10.71;82.59;101004.28;5003640;28;20515;-76
2021/05/20 09:52:25;;;;;;;11.88;10.70;;;;;;;10.89;83.00;101003.44;5003546;28;20095;-76
2021/05/20 09:54:51;;;;;;;11.48;9.27;;;;;;;11.19;83.18;100999.03;5005702;28;20125;-76
2021/05/20 09:57:31;;;;;;;10.80;8.68;;;;;;;11.58;80.52;100991.88;5003368;28;20105;-76
2021/05/20 09:59:59;;;;;;;11.40;9.40;;;;;;;11.90;81.13;100991.81;5018976;28;20038;-76
2021/05/20 10:02:25;;;;;;;10.85;9.70;;;;;;;12.20;79.90;100985.47;5007530;28;20049;-75
2021/05/20 10:04:53;;;;;;;12.10;10.80;;;;;;;12.61;80.25;100979.03;5012579;28;20030;-78
2021/05/20 10:07:29;;;;;;;11.60;10.40;;;;;;;13.00;80.29;100976.09;5009829;28;20116;-77
2021/05/20 10:09:54;;;;;;;13.90;12.38;;;;;;;13.33;78.66;100980.19;5011423;28;20071;-78
2021/05/20 10:12:20;;;;;;;16.75;14.38;;;;;;;13.58;78.20;100972.88;5010856;28;20121;-78
2021/05/20 10:14:48;;;;;;;15.50;13.95;;;;;;;13.79;77.82;100969.09;5006778;28;20034;-76
2021/05/20 10:17:16;;;;;;;15.90;14.27;;;;;;;14.05;75.97;100976.72;5004509;28;20054;-76
2021/05/20 10:19:43;;;;;;;17.08;15.38;;;;;;;14.06;74.16;100969.63;5002868;28;20092;-75
2021/05/20 10:22:14;;;;;;;17.08;15.38;;;;;;;14.07;73.94;100960.75;5005670;28;20070;-76
2021/05/20 10:24:41;;;;;;;15.82;14.13;;;;;;;14.21;73.20;100964.97;5003206;28;20045;-76
2021/05/20 10:27:10;;;;;;;17.45;15.85;;;;;;;14.53;71.47;100957.47;5005236;28;20034;-76
2021/05/20 10:29:36;;;;;;;17.83;16.05;;;;;;;14.88;71.85;100951.56;5003833;28;20820;-76
2021/05/20 10:32:03;;;;;;;16.27;14.68;;;;;;;15.05;69.48;100961.91;5002457;28;20028;-76
2021/05/20 10:34:28;;;;;;;15.15;13.32;;;;;;;15.03;68.44;100945.97;5000977;28;20053;-76
2021/05/20 10:37:06;;;;;;;14.63;13.07;;;;;;;14.88;67.68;100944.50;5005997;28;20034;-76
2021/05/20 10:39:32;;;;;;;13.02;11.20;;;;;;;14.61;67.38;100950.25;5002802;28;20041;-76
2021/05/20 10:41:57;;;;;;;9.73;8.18;;;;;;;14.74;63.16;100943.84;5003574;28;20034;-76
2021/05/20 10:44:25;;;;;;;7.65;6.88;;;;;;;15.33;62.05;100955.19;5004803;28;20052;-77
2021/05/20 10:46:56;;;;;;;8.27;6.93;;;;;;;14.97;64.22;100948.75;5017576;28;20070;-77
2021/05/20 10:49:41;;;;;;;12.60;10.67;;;;;;;14.78;63.23;100950.88;5003321;28;20250;-77
2021/05/20 10:52:37;;;;;;;12.57;11.27;;;;;;;14.58;65.01;100948.53;5004657;28;20038;-76
2021/05/20 10:55:05;;;;;;;12.82;10.77;;;;;;;15.03;63.02;100934.47;5004878;28;20389;-77
2021/05/20 10:57:46;;;;;;;12.00;10.32;;;;;;;15.11;62.54;100937.88;5018323;28;20487;-78
2021/05/20 11:00:30;;;;;;;10.00;8.65;;;;;;;14.82;61.78;100931.28;5004753;28;20599;-76
2021/05/20 11:02:55;;;;;;;10.57;8.63;;;;;;;14.86;63.59;100925.03;5019719;28;20030;-77
2021/05/20 11:05:51;;;;;;;9.30;8.20;;;;;;;14.68;61.91;100933.31;5008424;28;20524;-77
2021/05/20 11:08:29;;;;;;;9.93;7.80;;;;;;;14.70;61.13;100926.22;5004708;28;20034;-78
2021/05/20 11:10:55;;;;;;;8.95;7.82;;;;;;;14.76;60.58;100928.75;5017957;28;20065;-77
2021/05/20 11:13:37;;;;;;;7.95;6.10;;;;;;;14.85;60.02;100928.56;5004406;28;20056;-78
2021/05/20 11:16:13;;;;;;;8.38;5.35;;;;;;;15.01;59.01;100920.34;5004488;28;20041;-78
2021/05/20 11:18:38;;;;;;;5.88;5.10;;;;;;;15.23;58.65;100921.69;5004453;28;20037;-78
2021/05/20 11:21:04;;;;;;;6.32;4.55;;;;;;;15.36;58.70;100917.03;5004171;28;20080;-77
2021/05/20 11:23:31;;;;;;;10.45;4.85;;;;;;;15.81;56.29;100918.81;5001456;28;20488;-77
2021/05/20 11:26:02;;;;;;;6.22;4.10;;;;;;;15.88;56.29;100921.28;5003473;28;20551;-78